createdAt,value
2019-04-11T00:00:21.489Z,6.64
2019-04-11T00:01:32.542Z,6.73
2019-04-11T00:02:21.009Z,6.63
2019-04-11T00:03:21.645Z,6.51
2019-04-11T00:04:22.066Z,6.43
2019-04-11T00:05:21.169Z,6.33
2019-04-11T00:06:21.378Z,6.35
2019-04-11T00:07:22.394Z,6.40
2019-04-11T00:08:21.740Z,6.54
2019-04-11T00:09:21.379Z,6.55
2019-04-11T00:10:21.434Z,6.50
2019-04-11T00:11:21.885Z,6.40
2019-04-11T00:12:22.150Z,6.45
2019-04-11T00:13:24.340Z,6.39
2019-04-11T00:14:22.112Z,6.33
2019-04-11T00:15:21.703Z,6.36
2019-04-11T00:16:21.754Z,6.43
2019-04-11T00:17:21.804Z,6.42
2019-04-11T00:18:22.866Z,6.25
2019-04-11T00:19:23.116Z,6.40
2019-04-11T00:20:22.195Z,6.33
2019-04-11T00:21:22.477Z,6.13
2019-04-11T00:22:22.070Z,6.16
2019-04-11T00:23:22.126Z,6.16
2019-04-11T00:24:22.903Z,6.13
2019-04-11T00:25:23.190Z,6.08
2019-04-11T00:26:22.282Z,6.01
2019-04-11T00:27:22.336Z,6.05
2019-04-11T00:28:23.633Z,6.14
2019-04-11T00:29:22.690Z,6.16
2019-04-11T00:30:22.494Z,6.05
2019-04-11T00:31:23.029Z,6.01
2019-04-11T00:32:22.600Z,5.93
2019-04-11T00:33:23.658Z,6.08
2019-04-11T00:34:22.714Z,6.17
2019-04-11T00:35:23.802Z,6.08
2019-04-11T00:36:22.811Z,5.98
2019-04-11T00:37:23.209Z,5.96
2019-04-11T00:38:23.532Z,5.88
2019-04-11T00:39:23.650Z,5.85
2019-04-11T00:40:23.022Z,5.99
2019-04-11T00:41:23.902Z,6.10
2019-04-11T00:42:23.128Z,6.03
2019-04-11T00:43:31.670Z,6.03
2019-04-11T00:44:23.233Z,5.85
2019-04-11T00:45:23.363Z,5.87
2019-04-11T00:46:24.480Z,5.75
2019-04-11T00:47:23.391Z,5.70
2019-04-11T00:48:23.858Z,5.47
2019-04-11T00:49:24.188Z,5.56
2019-04-11T00:50:23.548Z,5.44
2019-04-11T00:51:23.649Z,5.45
2019-04-11T00:52:23.654Z,5.49
2019-04-11T00:53:23.707Z,5.59
2019-04-11T00:54:24.730Z,5.52
2019-04-11T00:55:23.900Z,5.49
2019-04-11T00:56:24.191Z,5.62
2019-04-11T00:57:25.112Z,5.58
2019-04-11T00:58:23.970Z,5.65
2019-04-11T00:59:24.585Z,5.75
2019-04-11T01:00:24.075Z,5.67
2019-04-11T01:01:24.126Z,5.75
2019-04-11T01:02:25.185Z,5.75
2019-04-11T01:03:24.324Z,5.42
2019-04-11T01:04:25.456Z,5.49
2019-04-11T01:05:25.542Z,5.49
2019-04-11T01:06:24.391Z,5.52
2019-04-11T01:07:24.961Z,5.62
2019-04-11T01:08:24.495Z,5.63
2019-04-11T01:09:24.548Z,5.63
2019-04-11T01:10:24.632Z,5.56
2019-04-11T01:11:24.799Z,5.41
2019-04-11T01:12:24.830Z,5.44
2019-04-11T01:13:25.825Z,5.49
2019-04-11T01:14:25.782Z,5.52
2019-04-11T01:15:24.862Z,5.32
2019-04-11T01:16:24.915Z,5.35
2019-04-11T01:17:25.377Z,5.35
2019-04-11T01:18:25.734Z,5.33
2019-04-11T01:19:25.072Z,5.26
2019-04-11T01:20:25.124Z,5.19
2019-04-11T01:21:26.381Z,5.26
2019-04-11T01:22:26.434Z,5.33
2019-04-11T01:23:25.281Z,5.14
2019-04-11T01:24:25.976Z,5.15
2019-04-11T01:25:25.403Z,5.20
2019-04-11T01:26:26.614Z,5.20
2019-04-11T01:27:25.737Z,5.15
2019-04-11T01:28:25.542Z,5.17
2019-04-11T01:29:25.594Z,5.12
2019-04-11T01:30:25.647Z,5.17
2019-04-11T01:31:25.702Z,5.17
2019-04-11T01:32:26.407Z,5.24
2019-04-11T01:33:25.803Z,5.14
2019-04-11T01:34:26.680Z,5.15
2019-04-11T01:35:25.907Z,5.12
2019-04-11T01:36:26.944Z,5.19
2019-04-11T01:37:26.074Z,5.04
2019-04-11T01:38:26.212Z,5.04
2019-04-11T01:39:26.772Z,5.08
2019-04-11T01:40:26.171Z,4.93
2019-04-11T01:41:26.693Z,5.02
2019-04-11T01:42:27.052Z,4.97
2019-04-11T01:43:26.326Z,4.90
2019-04-11T01:44:26.379Z,4.90
2019-04-11T01:45:27.470Z,4.84
2019-04-11T01:46:26.488Z,4.87
2019-04-11T01:47:26.844Z,4.90
2019-04-11T01:48:27.797Z,4.94
2019-04-11T01:49:26.640Z,4.90
2019-04-11T01:50:27.169Z,5.08
2019-04-11T01:51:26.744Z,4.99
2019-04-11T01:52:26.796Z,4.86
2019-04-11T01:53:26.893Z,4.93
2019-04-11T01:54:27.949Z,4.90
2019-04-11T01:55:26.954Z,4.99
2019-04-11T01:56:27.350Z,5.06
2019-04-11T01:57:27.631Z,4.97
2019-04-11T01:58:27.107Z,4.93
2019-04-11T01:59:27.165Z,4.79
2019-04-11T02:00:28.080Z,4.69
2019-04-11T02:01:28.499Z,4.74
2019-04-11T02:02:28.604Z,4.75
2019-04-11T02:03:27.495Z,4.83
2019-04-11T02:04:27.915Z,4.69
2019-04-11T02:05:27.472Z,4.80
2019-04-11T02:06:27.729Z,4.69
2019-04-11T02:07:28.809Z,4.71
2019-04-11T02:08:27.631Z,4.86
2019-04-11T02:09:28.343Z,4.71
2019-04-11T02:10:28.697Z,4.59
2019-04-11T02:11:27.785Z,4.64
2019-04-11T02:12:28.960Z,4.59
2019-04-11T02:13:28.014Z,4.57
2019-04-11T02:14:28.062Z,4.65
2019-04-11T02:15:28.241Z,4.47
2019-04-11T02:16:29.257Z,4.42
2019-04-11T02:17:28.097Z,4.51
2019-04-11T02:18:28.151Z,4.50
2019-04-11T02:19:28.211Z,4.51
2019-04-11T02:20:29.136Z,4.49
2019-04-11T02:21:29.469Z,4.43
2019-04-11T02:22:28.590Z,4.56
2019-04-11T02:23:28.860Z,4.59
2019-04-11T02:24:28.459Z,4.57
2019-04-11T02:25:28.511Z,4.49
2019-04-11T02:26:29.359Z,4.49
2019-04-11T02:27:28.618Z,4.56
2019-04-11T02:28:28.778Z,4.54
2019-04-11T02:29:29.747Z,4.50
2019-04-11T02:30:30.514Z,4.53
2019-04-11T02:31:30.438Z,4.44
2019-04-11T02:32:29.330Z,4.43
2019-04-11T02:33:30.518Z,4.46
2019-04-11T02:34:29.649Z,4.34
2019-04-11T02:35:29.034Z,4.31
2019-04-11T02:36:30.053Z,4.42
2019-04-11T02:37:29.457Z,4.32
2019-04-11T02:38:30.417Z,4.36
2019-04-11T02:39:31.167Z,4.20
2019-04-11T02:40:30.050Z,4.21
2019-04-11T02:41:29.877Z,4.13
2019-04-11T02:42:30.666Z,4.16
2019-04-11T02:43:29.637Z,4.13
2019-04-11T02:44:45.476Z,4.17
2019-04-11T02:45:42.868Z,4.18
2019-04-11T02:46:40.755Z,4.14
2019-04-11T02:47:32.457Z,4.10
2019-04-11T02:48:31.037Z,4.10
2019-04-11T02:49:31.173Z,4.13
2019-04-11T02:50:30.042Z,4.13
2019-04-11T02:51:31.177Z,4.16
2019-04-11T02:52:31.175Z,4.11
2019-04-11T02:53:30.777Z,4.14
2019-04-11T02:54:30.666Z,4.17
2019-04-11T02:55:31.672Z,4.08
2019-04-11T02:56:31.227Z,4.13
2019-04-11T02:57:30.189Z,3.98
2019-04-11T02:58:31.754Z,3.99
2019-04-11T02:59:30.579Z,4.02
2019-04-11T03:00:31.142Z,3.98
2019-04-11T03:01:31.934Z,3.92
2019-04-11T03:02:30.866Z,3.90
2019-04-11T03:03:32.091Z,3.86
2019-04-11T03:04:31.075Z,3.90
2019-04-11T03:05:31.027Z,3.80
2019-04-11T03:06:31.091Z,3.82
2019-04-11T03:07:32.005Z,3.89
2019-04-11T03:08:34.215Z,3.92
2019-04-11T03:09:31.359Z,3.89
2019-04-11T03:10:31.397Z,3.98
2019-04-11T03:11:32.541Z,3.81
2019-04-11T03:12:31.961Z,3.80
2019-04-11T03:13:33.186Z,3.75
2019-04-11T03:14:46.156Z,3.88
2019-04-11T03:15:44.619Z,3.80
2019-04-11T03:16:42.941Z,3.82
2019-04-11T03:17:36.139Z,3.75
2019-04-11T03:18:49.430Z,3.71
2019-04-11T03:19:43.890Z,3.78
2019-04-11T03:20:39.560Z,3.78
2019-04-11T03:21:36.746Z,3.70
2019-04-11T03:22:32.154Z,3.74
2019-04-11T03:23:33.036Z,3.75
2019-04-11T03:24:33.447Z,3.70
2019-04-11T03:25:33.054Z,3.67
2019-04-11T03:26:33.439Z,3.62
2019-04-11T03:27:32.590Z,3.68
2019-04-11T03:28:33.504Z,3.62
2019-04-11T03:29:33.758Z,3.68
2019-04-11T03:30:51.829Z,3.53
2019-04-11T03:32:10.920Z,3.54
2019-04-11T03:33:17.283Z,3.63
2019-04-11T03:36:28.621Z,3.56
2019-04-11T03:37:55.128Z,3.56
2019-04-11T03:38:55.232Z,3.46
2019-04-11T03:39:50.776Z,3.53
2019-04-11T03:40:50.512Z,3.46
2019-04-11T03:41:53.566Z,3.50
2019-04-11T03:42:49.460Z,3.42
2019-04-11T03:43:45.169Z,3.39
2019-04-11T03:44:38.346Z,3.45
2019-04-11T03:45:52.467Z,3.45
2019-04-11T03:46:49.207Z,3.39
2019-04-11T03:47:44.812Z,3.41
2019-04-11T03:48:43.729Z,3.45
2019-04-11T03:49:43.250Z,3.45
2019-04-11T03:50:34.895Z,3.37
2019-04-11T03:51:33.987Z,3.39
2019-04-11T03:52:34.627Z,3.42
2019-04-11T03:53:34.258Z,3.35
2019-04-11T03:54:34.230Z,3.41
2019-04-11T03:55:34.867Z,3.37
2019-04-11T03:56:34.569Z,3.31
2019-04-11T03:57:34.258Z,3.34
2019-04-11T03:58:33.607Z,3.30
2019-04-11T03:59:34.307Z,3.25
2019-04-11T04:00:36.355Z,3.25
2019-04-11T04:01:34.100Z,3.22
2019-04-11T04:02:34.837Z,3.17
2019-04-11T04:03:34.233Z,3.22
2019-04-11T04:04:35.258Z,3.20
2019-04-11T04:05:36.576Z,3.17
2019-04-11T04:06:33.726Z,3.22
2019-04-11T04:07:34.033Z,3.05
2019-04-11T04:08:34.350Z,3.19
2019-04-11T04:09:35.273Z,3.20
2019-04-11T04:10:34.099Z,3.05
2019-04-11T04:11:34.766Z,3.15
2019-04-11T04:12:35.631Z,3.08
2019-04-11T04:13:34.544Z,3.13
2019-04-11T04:14:34.702Z,2.99
2019-04-11T04:15:47.184Z,3.01
2019-04-11T04:16:40.775Z,3.04
2019-04-11T04:17:35.278Z,3.02
2019-04-11T04:18:36.103Z,2.97
2019-04-11T04:19:35.392Z,3.02
2019-04-11T04:20:35.227Z,3.04
2019-04-11T04:21:35.249Z,2.97
2019-04-11T04:22:35.609Z,3.01
2019-04-11T04:23:35.938Z,2.90
2019-04-11T04:24:39.327Z,2.83
2019-04-11T04:25:34.834Z,2.98
2019-04-11T04:26:35.551Z,3.04
2019-04-11T04:27:35.397Z,2.99
2019-04-11T04:28:35.750Z,2.98
2019-04-11T04:29:37.183Z,2.97
2019-04-11T04:30:36.001Z,2.90
2019-04-11T04:31:35.172Z,2.97
2019-04-11T04:32:36.227Z,2.99
2019-04-11T04:33:36.108Z,3.01
2019-04-11T04:34:36.049Z,2.99
2019-04-11T04:35:38.811Z,2.99
2019-04-11T04:36:35.247Z,2.97
2019-04-11T04:37:35.296Z,2.90
2019-04-11T04:38:35.579Z,2.90
2019-04-11T04:39:36.956Z,2.87
2019-04-11T04:40:49.954Z,2.86
2019-04-11T04:41:42.922Z,2.87
2019-04-11T04:42:40.383Z,2.83
2019-04-11T04:43:36.512Z,2.79
2019-04-11T04:44:35.655Z,2.87
2019-04-11T04:45:54.511Z,2.87
2019-04-11T04:46:52.780Z,2.84
2019-04-11T04:47:42.201Z,2.71
2019-04-11T04:48:35.859Z,2.71
2019-04-11T04:49:36.511Z,2.76
2019-04-11T04:50:36.694Z,2.77
2019-04-11T04:51:37.265Z,2.86
2019-04-11T04:52:38.032Z,2.79
2019-04-11T04:53:36.246Z,2.83
2019-04-11T04:54:36.536Z,2.69
2019-04-11T04:55:36.765Z,2.62
2019-04-11T04:56:37.514Z,2.65
2019-04-11T04:57:37.652Z,2.56
2019-04-11T04:58:37.881Z,2.53
2019-04-11T04:59:38.398Z,2.61
2019-04-11T05:00:37.646Z,2.59
2019-04-11T05:01:37.349Z,2.61
2019-04-11T05:02:37.362Z,2.55
2019-04-11T05:03:37.931Z,2.65
2019-04-11T05:04:38.168Z,2.63
2019-04-11T05:05:38.308Z,2.51
2019-04-11T05:06:36.782Z,2.41
2019-04-11T05:07:40.220Z,2.44
2019-04-11T05:08:36.877Z,2.44
2019-04-11T05:09:38.364Z,2.47
2019-04-11T05:10:38.160Z,2.51
2019-04-11T05:11:38.278Z,2.43
2019-04-11T05:12:38.629Z,2.37
2019-04-11T05:13:38.644Z,2.43
2019-04-11T05:14:37.381Z,2.41
2019-04-11T05:15:38.421Z,2.44
2019-04-11T05:16:37.633Z,2.45
2019-04-11T05:17:38.697Z,2.62
2019-04-11T05:18:37.386Z,2.56
2019-04-11T05:19:38.381Z,2.56
2019-04-11T05:20:38.529Z,2.50
2019-04-11T05:21:37.544Z,2.53
2019-04-11T05:22:37.587Z,2.59
2019-04-11T05:23:37.640Z,2.59
2019-04-11T05:24:38.857Z,2.61
2019-04-11T05:25:38.842Z,2.53
2019-04-11T05:26:37.792Z,2.56
2019-04-11T05:27:37.924Z,2.66
2019-04-11T05:28:37.894Z,2.66
2019-04-11T05:29:37.944Z,2.80
2019-04-11T05:30:37.995Z,2.90
2019-04-11T05:31:38.728Z,2.97
2019-04-11T05:32:38.097Z,2.99
2019-04-11T05:33:39.111Z,2.92
2019-04-11T05:34:39.276Z,2.95
2019-04-11T05:35:38.249Z,2.89
2019-04-11T05:36:38.736Z,2.90
2019-04-11T05:37:39.641Z,2.90
2019-04-11T05:38:38.402Z,2.95
2019-04-11T05:39:38.464Z,2.89
2019-04-11T05:40:38.505Z,2.86
2019-04-11T05:41:42.101Z,2.89
2019-04-11T05:42:39.638Z,2.84
2019-04-11T05:43:41.295Z,2.98
2019-04-11T05:44:40.317Z,2.97
2019-04-11T05:45:38.760Z,2.86
2019-04-11T05:46:49.142Z,2.84
2019-04-11T05:47:39.299Z,3.01
2019-04-11T05:48:39.063Z,3.01
2019-04-11T05:49:40.824Z,3.20
2019-04-11T05:50:44.253Z,3.17
2019-04-11T05:51:41.646Z,3.05
2019-04-11T05:52:39.992Z,3.10
2019-04-11T05:53:39.232Z,2.99
2019-04-11T05:54:41.865Z,2.98
2019-04-11T05:55:43.257Z,2.89
2019-04-11T05:56:39.553Z,2.97
2019-04-11T05:57:40.436Z,3.04
2019-04-11T05:58:42.124Z,2.87
2019-04-11T05:59:39.480Z,2.86
2019-04-11T06:00:40.897Z,2.99
2019-04-11T06:01:39.581Z,3.07
2019-04-11T06:02:39.631Z,3.20
2019-04-11T06:03:43.256Z,3.16
2019-04-11T06:04:40.590Z,3.15
2019-04-11T06:05:40.789Z,3.22
2019-04-11T06:06:40.329Z,3.13
2019-04-11T06:07:42.075Z,3.16
2019-04-11T06:08:39.944Z,3.23
2019-04-11T06:09:41.620Z,3.15
2019-04-11T06:10:42.646Z,3.23
2019-04-11T06:11:41.172Z,3.25
2019-04-11T06:12:41.337Z,3.42
2019-04-11T06:13:40.650Z,3.59
2019-04-11T06:14:40.250Z,3.57
2019-04-11T06:15:42.809Z,3.70
2019-04-11T06:16:46.173Z,3.88
2019-04-11T06:17:40.758Z,3.96
2019-04-11T06:18:43.846Z,4.00
2019-04-11T06:19:41.558Z,4.13
2019-04-11T06:20:40.558Z,4.16
2019-04-11T06:21:40.609Z,4.25
2019-04-11T06:22:40.661Z,4.25
2019-04-11T06:23:40.712Z,4.24
2019-04-11T06:24:40.764Z,4.31
2019-04-11T06:25:44.542Z,4.43
2019-04-11T06:26:40.869Z,4.43
2019-04-11T06:27:42.813Z,4.42
2019-04-11T06:28:40.971Z,4.47
2019-04-11T06:29:41.080Z,4.50
2019-04-11T06:30:42.228Z,4.43
2019-04-11T06:31:42.253Z,4.49
2019-04-11T06:32:41.180Z,4.56
2019-04-11T06:33:41.240Z,4.56
2019-04-11T06:34:41.714Z,4.62
2019-04-11T06:35:41.336Z,4.75
2019-04-11T06:36:41.387Z,4.75
2019-04-11T06:37:41.612Z,4.83
2019-04-11T06:38:41.491Z,4.79
2019-04-11T06:39:41.544Z,4.88
2019-04-11T06:40:41.862Z,4.99
2019-04-11T06:41:41.649Z,5.01
2019-04-11T06:42:41.703Z,5.08
2019-04-11T06:43:42.592Z,5.20
2019-04-11T06:44:41.809Z,5.19
2019-04-11T06:45:41.923Z,5.30
2019-04-11T06:46:50.477Z,5.41
2019-04-11T06:47:43.068Z,5.44
2019-04-11T06:48:42.204Z,5.38
2019-04-11T06:49:42.575Z,5.38
2019-04-11T06:50:42.120Z,5.51
2019-04-11T06:51:42.172Z,5.47
2019-04-11T06:52:43.299Z,5.56
2019-04-11T06:53:42.279Z,5.63
2019-04-11T06:54:43.382Z,5.65
2019-04-11T06:55:42.697Z,5.80
2019-04-11T06:56:43.384Z,5.67
2019-04-11T06:57:42.495Z,5.83
2019-04-11T06:58:43.642Z,5.83
2019-04-11T06:59:42.965Z,5.84
2019-04-11T07:00:42.648Z,6.10
2019-04-11T07:01:42.700Z,6.17
2019-04-11T07:02:42.754Z,6.25
2019-04-11T07:03:42.810Z,6.35
2019-04-11T07:04:43.848Z,6.35
2019-04-11T07:05:42.913Z,6.54
2019-04-11T07:06:43.908Z,6.58
2019-04-11T07:07:43.111Z,6.53
2019-04-11T07:08:43.073Z,6.65
2019-04-11T07:09:43.142Z,6.73
2019-04-11T07:10:43.180Z,6.82
2019-04-11T07:11:43.234Z,6.96
2019-04-11T07:12:43.287Z,6.93
2019-04-11T07:13:43.409Z,6.99
2019-04-11T07:14:43.415Z,7.05
2019-04-11T07:15:44.230Z,7.04
2019-04-11T07:16:44.636Z,7.00
2019-04-11T07:17:43.851Z,7.07
2019-04-11T07:18:44.226Z,7.24
2019-04-11T07:19:44.484Z,7.15
2019-04-11T07:20:43.751Z,7.30
2019-04-11T07:21:44.041Z,7.32
2019-04-11T07:22:43.822Z,7.36
2019-04-11T07:23:44.670Z,7.37
2019-04-11T07:24:43.930Z,7.32
2019-04-11T07:25:45.075Z,7.32
2019-04-11T07:26:44.036Z,7.32
2019-04-11T07:27:45.073Z,7.32
2019-04-11T07:28:44.145Z,7.39
2019-04-11T07:29:44.303Z,7.33
2019-04-11T07:30:45.181Z,7.39
2019-04-11T07:31:44.376Z,7.48
2019-04-11T07:32:45.104Z,7.51
2019-04-11T07:33:45.079Z,7.63
2019-04-11T07:34:45.657Z,7.63
2019-04-11T07:35:45.128Z,7.70
2019-04-11T07:36:44.577Z,7.70
2019-04-11T07:37:44.839Z,7.82
2019-04-11T07:38:45.552Z,7.82
2019-04-11T07:39:45.061Z,7.58
2019-04-11T07:40:44.793Z,7.62
2019-04-11T07:41:45.560Z,7.62
2019-04-11T07:42:44.904Z,7.71
2019-04-11T07:43:44.967Z,7.76
2019-04-11T07:44:45.223Z,7.82
2019-04-11T07:45:45.063Z,7.82
2019-04-11T07:46:45.118Z,7.95
2019-04-11T07:47:46.078Z,7.99
2019-04-11T07:48:45.228Z,8.06
2019-04-11T07:49:45.279Z,8.00
2019-04-11T07:50:46.434Z,8.03
2019-04-11T07:51:45.389Z,8.06
2019-04-11T07:52:45.446Z,8.09
2019-04-11T07:53:45.942Z,8.13
2019-04-11T07:54:45.722Z,8.09
2019-04-11T07:55:46.610Z,8.13
2019-04-11T07:56:46.333Z,8.18
2019-04-11T07:57:46.785Z,8.04
2019-04-11T07:58:45.817Z,8.06
2019-04-11T07:59:46.707Z,8.13
2019-04-11T08:00:49.024Z,8.17
2019-04-11T08:01:46.929Z,8.25
2019-04-11T08:02:46.008Z,8.24
2019-04-11T08:03:46.973Z,8.17
2019-04-11T08:04:47.270Z,8.22
2019-04-11T08:05:46.687Z,8.24
2019-04-11T08:06:46.207Z,8.28
2019-04-11T08:07:46.882Z,8.32
2019-04-11T08:08:47.120Z,8.28
2019-04-11T08:09:46.369Z,8.36
2019-04-11T08:10:46.430Z,8.37
2019-04-11T08:11:47.702Z,8.54
2019-04-11T08:12:47.869Z,8.55
2019-04-11T08:13:47.189Z,8.60
2019-04-11T08:14:46.744Z,8.65
2019-04-11T08:15:46.696Z,8.73
2019-04-11T08:16:46.928Z,8.63
2019-04-11T08:17:47.991Z,8.64
2019-04-11T08:18:46.859Z,8.70
2019-04-11T08:19:47.017Z,8.76
2019-04-11T08:20:47.799Z,8.88
2019-04-11T08:21:47.182Z,8.93
2019-04-11T08:22:47.498Z,8.89
2019-04-11T08:24:20.518Z,8.91
2019-04-11T08:24:47.191Z,8.89
2019-04-11T08:25:47.518Z,8.93
2019-04-11T08:26:48.374Z,9.10
2019-04-11T08:27:54.655Z,9.08
2019-04-11T08:28:59.269Z,9.08
2019-04-11T08:29:49.946Z,9.04
2019-04-11T08:30:48.814Z,9.03
2019-04-11T08:31:48.686Z,9.17
2019-04-11T08:32:47.627Z,9.12
2019-04-11T08:33:48.848Z,8.93
2019-04-11T08:34:48.000Z,8.98
2019-04-11T08:35:51.620Z,9.03
2019-04-11T08:36:48.932Z,9.13
2019-04-11T08:37:47.908Z,9.06
2019-04-11T08:38:48.776Z,9.13
2019-04-11T08:39:49.082Z,9.01
2019-04-11T08:40:49.126Z,9.06
2019-04-11T08:41:48.122Z,9.01
2019-04-11T08:42:48.672Z,9.12
2019-04-11T08:43:48.232Z,9.08
2019-04-11T08:44:48.286Z,9.06
2019-04-11T08:45:48.547Z,9.00
2019-04-11T08:46:48.404Z,9.01
2019-04-11T08:47:52.624Z,9.10
2019-04-11T08:48:48.971Z,9.17
2019-04-11T08:49:48.564Z,9.22
2019-04-11T08:50:48.617Z,9.32
2019-04-11T08:51:49.595Z,9.37
2019-04-11T08:52:48.761Z,9.38
2019-04-11T08:53:49.032Z,9.27
2019-04-11T08:54:50.056Z,9.12
2019-04-11T08:55:55.374Z,9.15
2019-04-11T08:56:49.436Z,9.24
2019-04-11T08:57:49.860Z,9.35
2019-04-11T08:58:49.101Z,9.53
2019-04-11T08:59:49.398Z,9.53
2019-04-11T09:00:51.046Z,9.49
2019-04-11T09:01:49.221Z,9.23
2019-04-11T09:02:49.275Z,9.32
2019-04-11T09:04:01.342Z,9.37
2019-04-11T09:04:50.318Z,9.38
2019-04-11T09:05:49.440Z,9.48
2019-04-11T09:06:49.503Z,9.73
2019-04-11T09:07:49.870Z,9.60
2019-04-11T09:08:49.663Z,9.68
2019-04-11T09:09:49.700Z,9.60
2019-04-11T09:10:50.690Z,9.70
2019-04-11T09:11:49.815Z,9.74
2019-04-11T09:12:50.883Z,9.70
2019-04-11T09:13:49.882Z,9.73
2019-04-11T09:14:50.593Z,9.68
2019-04-11T09:15:50.822Z,9.71
2019-04-11T09:16:50.052Z,9.55
2019-04-11T09:17:58.933Z,9.31
2019-04-11T09:18:50.283Z,9.37
2019-04-11T09:19:51.392Z,9.31
2019-04-11T09:20:50.269Z,9.37
2019-04-11T09:21:50.826Z,9.58
2019-04-11T09:22:50.385Z,9.38
2019-04-11T09:23:50.435Z,9.42
2019-04-11T09:24:50.612Z,9.65
2019-04-11T09:25:53.240Z,9.71
2019-04-11T09:26:50.600Z,9.80
2019-04-11T09:27:51.032Z,9.74
2019-04-11T09:28:51.587Z,9.80
2019-04-11T09:29:50.767Z,9.75
2019-04-11T09:30:50.821Z,9.68
2019-04-11T09:31:51.714Z,9.75
2019-04-11T09:32:50.937Z,9.85
2019-04-11T09:33:51.042Z,9.89
2019-04-11T09:34:52.186Z,10.01
2019-04-11T09:35:51.303Z,10.10
2019-04-11T09:36:51.365Z,10.20
2019-04-11T09:37:51.799Z,9.96
2019-04-11T09:38:51.290Z,9.96
2019-04-11T09:39:51.321Z,10.10
2019-04-11T09:40:52.115Z,10.07
2019-04-11T09:41:52.417Z,10.16
2019-04-11T09:42:51.531Z,10.29
2019-04-11T09:43:52.615Z,10.36
2019-04-11T09:44:51.617Z,10.20
2019-04-11T09:45:52.584Z,10.11
2019-04-11T09:46:51.713Z,10.09
2019-04-11T09:47:51.955Z,9.95
2019-04-11T09:48:51.833Z,9.83
2019-04-11T09:49:51.876Z,9.85
2019-04-11T09:50:52.987Z,10.16
2019-04-11T09:51:52.079Z,10.06
2019-04-11T09:52:54.398Z,10.16
2019-04-11T09:53:52.921Z,10.14
2019-04-11T09:54:52.622Z,10.49
2019-04-11T09:55:52.218Z,10.72
2019-04-11T09:56:52.266Z,10.55
2019-04-11T09:57:52.598Z,10.44
2019-04-11T09:58:52.377Z,9.99
2019-04-11T09:59:52.433Z,10.01
2019-04-11T10:00:52.931Z,10.20
2019-04-11T10:01:52.548Z,10.38
2019-04-11T10:02:52.775Z,10.54
2019-04-11T10:03:52.954Z,10.60
2019-04-11T10:04:54.307Z,10.66
2019-04-11T10:05:53.093Z,10.72
2019-04-11T10:06:53.229Z,10.73
2019-04-11T10:07:52.878Z,10.78
2019-04-11T10:08:53.192Z,10.80
2019-04-11T10:09:54.191Z,10.78
2019-04-11T10:10:53.334Z,10.87
2019-04-11T10:11:53.118Z,11.08
2019-04-11T10:12:54.201Z,10.86
2019-04-11T10:13:53.346Z,10.54
2019-04-11T10:14:53.638Z,10.62
2019-04-11T10:15:53.655Z,10.52
2019-04-11T10:16:53.393Z,10.17
2019-04-11T10:17:54.758Z,10.10
2019-04-11T10:18:53.677Z,10.10
2019-04-11T10:19:54.136Z,10.36
2019-04-11T10:20:53.606Z,10.46
2019-04-11T10:21:54.379Z,10.87
2019-04-11T10:22:54.429Z,11.09
2019-04-11T10:23:53.773Z,11.23
2019-04-11T10:24:54.784Z,11.06
2019-04-11T10:25:53.887Z,10.86
2019-04-11T10:26:54.023Z,10.98
2019-04-11T10:27:55.161Z,11.05
2019-04-11T10:28:54.054Z,11.02
2019-04-11T10:29:54.690Z,11.05
2019-04-11T10:30:54.167Z,10.98
2019-04-11T10:31:54.859Z,11.06
2019-04-11T10:32:55.296Z,10.81
2019-04-11T10:33:55.427Z,10.63
2019-04-11T10:34:54.390Z,10.90
2019-04-11T10:35:54.542Z,11.08
2019-04-11T10:36:55.709Z,11.26
2019-04-11T10:37:54.559Z,11.06
2019-04-11T10:38:55.097Z,10.98
2019-04-11T10:39:54.674Z,10.91
2019-04-11T10:40:54.732Z,10.88
2019-04-11T10:41:55.965Z,10.86
2019-04-11T10:42:55.896Z,10.81
2019-04-11T10:43:54.903Z,11.11
2019-04-11T10:44:56.172Z,11.27
2019-04-11T10:45:55.288Z,11.54
2019-04-11T10:46:55.757Z,11.59
2019-04-11T10:47:55.966Z,11.75
2019-04-11T10:48:55.230Z,12.11
2019-04-11T10:49:55.252Z,12.46
2019-04-11T10:50:56.182Z,12.77
2019-04-11T10:51:56.046Z,12.71
2019-04-11T10:52:55.430Z,13.44
2019-04-11T10:53:55.496Z,14.08
2019-04-11T10:54:55.549Z,13.83
2019-04-11T10:55:55.767Z,13.76
2019-04-11T10:56:55.821Z,13.53
2019-04-11T10:57:56.187Z,12.94
2019-04-11T10:58:55.797Z,13.51
2019-04-11T10:59:56.583Z,13.55
2019-04-11T11:00:55.912Z,13.88
2019-04-11T11:01:56.122Z,14.13
2019-04-11T11:02:56.038Z,14.67
2019-04-11T11:03:56.095Z,14.69
2019-04-11T11:04:56.864Z,15.38
2019-04-11T11:05:56.216Z,15.30
2019-04-11T11:06:56.279Z,15.80
2019-04-11T11:07:57.163Z,15.23
2019-04-11T11:08:57.375Z,14.56
2019-04-11T11:09:56.721Z,14.54
2019-04-11T11:10:57.692Z,14.29
2019-04-11T11:11:56.835Z,14.49
2019-04-11T11:12:57.295Z,14.35
2019-04-11T11:13:56.712Z,14.30
2019-04-11T11:14:56.774Z,14.21
2019-04-11T11:15:57.969Z,14.69
2019-04-11T11:16:56.903Z,15.44
2019-04-11T11:18:27.215Z,15.68
2019-04-11T11:19:24.605Z,15.56
2019-04-11T11:20:08.540Z,15.70
2019-04-11T11:21:00.847Z,15.84
2019-04-11T11:21:59.872Z,16.03
2019-04-11T11:22:57.274Z,15.59
2019-04-11T11:23:58.489Z,15.33
2019-04-11T11:24:58.057Z,15.33
2019-04-11T11:26:41.054Z,15.53
2019-04-11T11:27:39.967Z,15.49
2019-04-11T11:28:41.046Z,15.67
2019-04-11T11:29:40.439Z,15.68
2019-04-11T11:30:40.165Z,15.46
2019-04-11T11:31:40.760Z,15.56
2019-04-11T11:32:41.179Z,15.66
2019-04-11T11:33:40.608Z,16.11
2019-04-11T11:34:41.104Z,16.30
2019-04-11T11:35:42.485Z,16.51
2019-04-11T11:36:41.624Z,16.69
2019-04-11T11:37:41.622Z,16.62
2019-04-11T11:38:41.823Z,16.22
2019-04-11T11:39:41.412Z,15.92
2019-04-11T11:40:41.637Z,14.69
2019-04-11T11:41:40.915Z,14.75
2019-04-11T11:42:42.098Z,15.28
2019-04-11T11:43:41.249Z,15.15
2019-04-11T11:44:41.276Z,15.18
2019-04-11T11:45:41.627Z,15.27
2019-04-11T11:46:42.542Z,15.05
2019-04-11T11:47:41.686Z,14.95
2019-04-11T11:48:41.754Z,14.83
2019-04-11T11:49:53.382Z,15.53
2019-04-11T11:50:42.619Z,15.77
2019-04-11T11:51:41.586Z,15.67
2019-04-11T11:52:42.823Z,15.67
2019-04-11T11:53:42.596Z,14.87
2019-04-11T11:54:41.825Z,14.19
2019-04-11T11:55:41.741Z,14.64
2019-04-11T11:56:42.427Z,14.79
2019-04-11T11:57:42.705Z,15.04
2019-04-11T11:58:43.515Z,14.90
2019-04-11T11:59:42.840Z,14.48
2019-04-11T12:00:42.146Z,15.43
2019-04-11T12:01:45.313Z,15.78
2019-04-11T12:02:42.400Z,16.30
2019-04-11T12:03:42.476Z,15.80
2019-04-11T12:04:42.315Z,15.48
2019-04-11T12:05:47.108Z,15.84
2019-04-11T12:06:43.024Z,16.57
2019-04-11T12:07:43.085Z,17.63
2019-04-11T12:08:46.625Z,17.17
2019-04-11T12:09:42.632Z,15.68
2019-04-11T12:10:43.814Z,15.35
2019-04-11T12:11:42.753Z,15.93
2019-04-11T12:12:43.862Z,16.80
2019-04-11T12:13:43.290Z,16.98
2019-04-11T12:14:44.934Z,16.03
2019-04-11T12:15:43.526Z,15.60
2019-04-11T12:16:43.935Z,15.67
2019-04-11T12:17:43.137Z,15.70
2019-04-11T12:18:47.226Z,15.96
2019-04-11T12:19:51.140Z,15.58
2019-04-11T12:20:45.319Z,15.30
2019-04-11T12:21:46.272Z,15.89
2019-04-11T12:22:44.376Z,15.49
2019-04-11T12:23:55.565Z,15.86
2019-04-11T12:24:44.781Z,15.03
2019-04-11T12:25:43.657Z,15.03
2019-04-11T12:26:45.779Z,14.79
2019-04-11T12:27:43.800Z,15.46
2019-04-11T12:28:43.829Z,15.53
2019-04-11T12:29:47.845Z,16.04
2019-04-11T12:30:44.170Z,15.98
2019-04-11T12:31:44.066Z,16.06
2019-04-11T12:32:44.415Z,15.96
2019-04-11T12:33:44.145Z,16.69
2019-04-11T12:34:45.177Z,17.09
2019-04-11T12:35:44.413Z,17.02
2019-04-11T12:36:48.009Z,17.12
2019-04-11T12:37:45.432Z,16.51
2019-04-11T12:38:44.460Z,15.58
2019-04-11T12:39:44.526Z,15.28
2019-04-11T12:40:44.588Z,14.98
2019-04-11T12:41:44.651Z,14.63
2019-04-11T12:42:44.719Z,15.27
2019-04-11T12:43:44.777Z,15.53
2019-04-11T12:44:44.841Z,16.37
2019-04-11T12:45:44.905Z,17.10
2019-04-11T12:46:44.968Z,17.30
2019-04-11T12:47:45.093Z,15.96
2019-04-11T12:48:45.095Z,16.44
2019-04-11T12:49:52.795Z,15.44
2019-04-11T12:50:45.220Z,15.03
2019-04-11T12:51:45.285Z,15.38
2019-04-11T12:52:45.347Z,16.06
2019-04-11T12:53:45.412Z,16.59
2019-04-11T12:54:45.478Z,15.48
2019-04-11T12:55:45.540Z,15.07
2019-04-11T12:56:45.631Z,15.33
2019-04-11T12:57:45.666Z,15.51
2019-04-11T12:58:45.726Z,15.70
2019-04-11T12:59:45.791Z,15.95
2019-04-11T13:00:45.857Z,16.07
2019-04-11T13:01:45.974Z,16.37
2019-04-11T13:02:46.369Z,16.82
2019-04-11T13:03:46.070Z,16.42
2019-04-11T13:04:46.107Z,17.09
2019-04-11T13:05:46.170Z,17.77
2019-04-11T13:06:46.245Z,17.86
2019-04-11T13:07:46.298Z,16.99
2019-04-11T13:08:46.360Z,17.00
2019-04-11T13:09:46.632Z,17.10
2019-04-11T13:10:46.488Z,16.96
2019-04-11T13:11:46.551Z,16.78
2019-04-11T13:12:46.614Z,16.51
2019-04-11T13:13:46.678Z,16.36
2019-04-11T13:14:46.741Z,15.52
2019-04-11T13:15:46.805Z,15.48